Time;durP1;ratioP1;P1;durP2;ratioP2;P2;SDS_P1;SDS_P2;PMS_P1;PMS_P2;Temp;Humidity;BMP_temperature;BMP_pressure;BME280_temperature;BME280_humidity;BME280_pressure;Samples;Min_cycle;Max_cycle;Signal;HPM_P1;HPM_P2
2023/11/04 00:00:57;;;;;;;7.55;4.20;;;24.80;99.90;;;;;;5012774;28;20053;-48
2023/11/04 00:03:22;;;;;;;6.72;3.85;;;24.80;99.90;;;;;;5014150;28;20032;-48
2023/11/04 00:05:48;;;;;;;5.72;3.35;;;24.80;99.90;;;;;;5014880;28;20478;-48
2023/11/04 00:08:14;;;;;;;4.65;3.20;;;24.70;99.90;;;;;;5014818;28;20044;-48
2023/11/04 00:10:40;;;;;;;8.07;3.60;;;24.70;99.90;;;;;;5014787;28;20053;-48
2023/11/04 00:13:06;;;;;;;6.70;3.85;;;24.70;99.90;;;;;;5014698;28;20073;-48
2023/11/04 00:15:32;;;;;;;7.68;3.58;;;24.70;99.90;;;;;;5029967;28;20063;-48
2023/11/04 00:17:58;;;;;;;6.38;3.70;;;24.70;99.90;;;;;;5014692;28;20026;-48
2023/11/04 00:20:26;;;;;;;5.95;3.40;;;24.70;99.90;;;;;;5014613;28;20549;-48
2023/11/04 00:22:53;;;;;;;6.63;3.50;;;24.70;99.90;;;;;;5014683;28;20026;-48
2023/11/04 00:25:19;;;;;;;6.93;3.17;;;24.70;99.90;;;;;;5014731;28;20030;-48
2023/11/04 00:27:44;;;;;;;7.13;3.25;;;24.60;99.90;;;;;;5013301;28;20072;-48
2023/11/04 00:30:11;;;;;;;7.50;3.28;;;24.60;99.90;;;;;;5014289;28;20022;-48
2023/11/04 00:32:37;;;;;;;7.35;3.80;;;24.60;99.90;;;;;;5014472;28;20053;-48
2023/11/04 00:35:04;;;;;;;4.93;3.20;;;24.60;99.90;;;;;;5014380;28;20014;-47
2023/11/04 00:37:31;;;;;;;6.78;3.13;;;24.60;99.90;;;;;;5013874;28;20423;-48
2023/11/04 00:39:57;;;;;;;5.13;2.85;;;24.60;99.90;;;;;;5014494;28;20026;-47
2023/11/04 00:42:22;;;;;;;5.45;3.10;;;24.60;99.90;;;;;;5014543;28;20113;-48
2023/11/04 00:44:48;;;;;;;6.35;3.30;;;24.60;99.90;;;;;;5014162;28;20127;-48
2023/11/04 00:47:14;;;;;;;6.47;3.28;;;24.60;99.90;;;;;;5014191;28;20034;-48
2023/11/04 00:49:40;;;;;;;5.03;3.10;;;24.60;99.90;;;;;;5014025;28;20378;-48
2023/11/04 00:52:06;;;;;;;7.70;3.58;;;24.60;99.90;;;;;;5013818;28;20501;-48
2023/11/04 00:54:32;;;;;;;4.38;2.85;;;24.50;99.90;;;;;;5013894;28;20062;-48
2023/11/04 00:56:57;;;;;;;4.65;2.85;;;24.50;99.90;;;;;;5013843;28;20026;-48
2023/11/04 00:59:23;;;;;;;5.45;3.13;;;24.50;99.90;;;;;;5014109;28;20037;-48
2023/11/04 01:01:49;;;;;;;4.45;2.53;;;24.50;99.90;;;;;;5014126;28;20046;-48
2023/11/04 01:04:15;;;;;;;4.18;2.60;;;24.50;99.90;;;;;;5013721;28;20033;-48
2023/11/04 01:06:40;;;;;;;6.25;2.90;;;24.50;99.90;;;;;;5013836;28;20122;-48
2023/11/04 01:09:06;;;;;;;5.45;2.83;;;24.50;99.90;;;;;;5013685;28;20037;-48
2023/11/04 01:11:32;;;;;;;6.55;2.85;;;24.50;99.90;;;;;;5013555;28;20437;-48
2023/11/04 01:13:58;;;;;;;5.53;2.60;;;24.50;99.90;;;;;;5013740;28;20030;-48
2023/11/04 01:16:24;;;;;;;7.07;2.97;;;24.50;99.90;;;;;;5014039;28;20021;-48
2023/11/04 01:18:50;;;;;;;4.78;3.13;;;24.40;99.90;;;;;;5013776;28;20022;-48
2023/11/04 01:21:16;;;;;;;6.43;2.95;;;24.40;99.90;;;;;;5013634;28;20886;-48
2023/11/04 01:23:42;;;;;;;6.30;2.78;;;24.40;99.90;;;;;;5013598;28;20347;-48
2023/11/04 01:26:08;;;;;;;5.65;2.80;;;24.40;99.90;;;;;;5013598;28;20156;-48
2023/11/04 01:28:34;;;;;;;5.38;2.78;;;24.40;99.90;;;;;;5013466;28;20088;-48
2023/11/04 01:31:00;;;;;;;3.72;2.38;;;24.40;99.90;;;;;;5012206;28;20033;-48
2023/11/04 01:33:26;;;;;;;5.90;2.90;;;24.40;99.90;;;;;;5013581;28;20082;-48
2023/11/04 01:35:53;;;;;;;4.77;2.43;;;24.40;99.90;;;;;;5013642;28;20018;-48
2023/11/04 01:38:19;;;;;;;5.13;2.60;;;24.30;99.90;;;;;;5012230;28;20117;-48
2023/11/04 01:40:49;;;;;;;4.97;2.78;;;24.30;99.90;;;;;;5028473;28;20115;-48
2023/11/04 01:43:29;;;;;;;6.57;2.58;;;24.30;99.90;;;;;;5012966;28;20030;-48
2023/11/04 01:46:05;;;;;;;5.18;2.72;;;24.30;99.90;;;;;;5013347;28;20026;-47
2023/11/04 01:48:31;;;;;;;5.15;2.70;;;24.30;99.90;;;;;;5012371;28;20030;-48
2023/11/04 01:50:57;;;;;;;11.43;3.35;;;24.30;99.90;;;;;;5013227;28;20160;-47
2023/11/04 01:53:23;;;;;;;5.85;2.75;;;24.30;99.90;;;;;;5013167;28;20492;-47
2023/11/04 01:55:50;;;;;;;5.53;2.83;;;24.30;99.90;;;;;;5028330;28;20038;-47
2023/11/04 01:58:16;;;;;;;7.35;3.40;;;24.20;99.90;;;;;;5012981;28;20061;-47
2023/11/04 02:00:41;;;;;;;4.72;2.70;;;24.20;99.90;;;;;;5013256;28;20030;-48
2023/11/04 02:03:08;;;;;;;5.35;2.47;;;24.20;99.90;;;;;;5013013;28;20112;-47
2023/11/04 02:05:34;;;;;;;5.22;2.28;;;24.20;99.90;;;;;;5012795;28;20049;-48
2023/11/04 02:08:00;;;;;;;5.28;2.40;;;24.20;99.90;;;;;;5012701;28;20062;-48
2023/11/04 02:10:26;;;;;;;5.75;2.70;;;24.20;99.90;;;;;;5013022;28;20489;-47
2023/11/04 02:12:52;;;;;;;8.10;2.88;;;24.20;99.90;;;;;;5012694;28;20044;-49
2023/11/04 02:15:20;;;;;;;4.55;2.45;;;24.10;99.90;;;;;;5012764;28;20022;-47
2023/11/04 02:17:46;;;;;;;5.45;2.53;;;24.10;99.90;;;;;;5011469;28;20455;-47
2023/11/04 02:20:14;;;;;;;4.60;2.45;;;24.10;99.90;;;;;;5012692;28;20025;-47
2023/11/04 02:22:40;;;;;;;4.50;2.50;;;24.10;99.90;;;;;;5012660;28;20025;-47
2023/11/04 02:25:06;;;;;;;5.55;2.22;;;24.10;99.90;;;;;;5027897;28;20033;-47
2023/11/04 02:27:32;;;;;;;4.20;2.53;;;24.10;99.90;;;;;;5012601;28;20021;-47
2023/11/04 02:29:58;;;;;;;4.22;2.85;;;24.10;99.90;;;;;;5012645;28;20076;-47
2023/11/04 02:32:24;;;;;;;5.78;3.22;;;24.00;99.90;;;;;;5012429;28;20045;-48
2023/11/04 02:34:50;;;;;;;4.03;2.38;;;24.00;99.90;;;;;;5011507;28;20433;-47
2023/11/04 02:37:16;;;;;;;6.07;2.72;;;24.00;99.90;;;;;;5012555;28;20105;-47
2023/11/04 02:39:41;;;;;;;5.00;2.15;;;24.00;99.90;;;;;;5012355;28;20386;-47
2023/11/04 02:42:09;;;;;;;3.88;2.20;;;24.00;99.90;;;;;;5012433;28;20105;-47
2023/11/04 02:44:34;;;;;;;6.30;2.50;;;24.00;99.90;;;;;;5012895;28;20470;-47
2023/11/04 02:47:00;;;;;;;4.20;2.40;;;23.90;99.90;;;;;;5012536;28;20085;-47
2023/11/04 02:49:26;;;;;;;4.70;2.40;;;23.90;99.90;;;;;;5012506;28;20110;-48
2023/11/04 02:51:52;;;;;;;5.05;2.28;;;23.90;99.90;;;;;;5012307;28;20108;-47
2023/11/04 02:54:18;;;;;;;5.63;2.38;;;23.90;99.90;;;;;;5010279;28;20029;-47
2023/11/04 02:56:43;;;;;;;5.80;2.15;;;23.90;99.90;;;;;;5013907;28;20113;-47
2023/11/04 02:59:09;;;;;;;5.18;2.05;;;23.90;99.90;;;;;;5023227;28;20022;-47
2023/11/04 03:01:35;;;;;;;4.22;2.10;;;23.90;99.90;;;;;;5035052;28;20041;-47
2023/11/04 03:04:02;;;;;;;5.95;2.10;;;23.90;99.90;;;;;;5034945;28;20033;-47
2023/11/04 03:06:28;;;;;;;4.65;1.98;;;23.90;99.90;;;;;;5035602;28;20014;-47
2023/11/04 03:08:54;;;;;;;3.05;1.95;;;23.90;99.90;;;;;;5035700;28;20093;-47
2023/11/04 03:11:21;;;;;;;3.90;2.35;;;23.90;99.90;;;;;;5035253;28;20010;-47
2023/11/04 03:13:47;;;;;;;3.97;2.17;;;23.80;99.90;;;;;;5035653;28;20423;-47
2023/11/04 03:16:19;;;;;;;4.20;2.13;;;23.80;99.90;;;;;;5035401;28;20100;-47
2023/11/04 03:18:45;;;;;;;3.75;2.10;;;23.80;99.90;;;;;;5035295;28;20017;-47
2023/11/04 03:21:12;;;;;;;4.43;2.40;;;23.80;99.90;;;;;;5035241;28;20045;-47
2023/11/04 03:23:39;;;;;;;3.72;1.90;;;23.80;99.90;;;;;;5035158;28;20079;-48
2023/11/04 03:26:07;;;;;;;5.03;2.00;;;23.80;99.90;;;;;;5033574;28;20018;-47
2023/11/04 03:28:35;;;;;;;3.65;1.90;;;23.80;99.90;;;;;;5049553;28;20060;-47
2023/11/04 03:31:02;;;;;;;;;;;23.80;99.90;;;;;;5035308;28;20018;-47
2023/11/04 03:33:27;;;;;;;5.50;2.00;;;23.80;99.90;;;;;;5035479;28;19913;-47
2023/11/04 03:35:54;;;;;;;4.30;2.05;;;23.80;99.90;;;;;;5034826;28;20056;-48
2023/11/04 03:38:20;;;;;;;5.32;2.15;;;23.70;99.90;;;;;;5035318;28;20080;-47
2023/11/04 03:40:46;;;;;;;5.45;1.90;;;23.70;99.90;;;;;;5035184;28;20021;-48
2023/11/04 03:43:12;;;;;;;4.50;2.05;;;23.70;99.90;;;;;;5035325;28;20461;-48
2023/11/04 03:45:38;;;;;;;5.05;1.58;;;23.70;99.90;;;;;;5035169;28;20029;-48
2023/11/04 03:48:04;;;;;;;5.57;1.90;;;23.70;99.90;;;;;;5035147;28;20025;-48
2023/11/04 03:50:29;;;;;;;4.40;2.00;;;23.70;99.90;;;;;;5035262;28;20051;-48
2023/11/04 03:52:55;;;;;;;4.32;1.70;;;23.70;99.90;;;;;;5035032;28;20033;-48
2023/11/04 03:55:22;;;;;;;4.15;2.13;;;23.70;99.90;;;;;;5035003;28;20049;-47
2023/11/04 03:57:48;;;;;;;5.65;2.22;;;23.70;99.90;;;;;;5035033;28;20029;-48
2023/11/04 04:00:14;;;;;;;4.28;1.80;;;23.70;99.90;;;;;;5035509;28;20029;-48
2023/11/04 04:02:40;;;;;;;5.47;2.03;;;23.70;99.90;;;;;;5034681;28;20037;-47
2023/11/04 04:05:07;;;;;;;4.00;1.80;;;23.70;99.90;;;;;;5035051;28;20367;-48
2023/11/04 04:07:33;;;;;;;5.40;1.90;;;23.70;99.90;;;;;;5035087;28;20030;-47
2023/11/04 04:10:00;;;;;;;13.25;2.55;;;23.70;99.90;;;;;;5034789;28;20041;-47
2023/11/04 04:12:25;;;;;;;4.80;2.22;;;23.70;99.90;;;;;;5033826;28;20041;-47
2023/11/04 04:14:51;;;;;;;2.42;1.67;;;23.70;99.90;;;;;;5034644;28;20026;-47
2023/11/04 04:17:17;;;;;;;6.45;1.98;;;23.70;99.90;;;;;;5034652;28;20105;-48
2023/11/04 04:19:43;;;;;;;3.97;1.88;;;23.60;99.90;;;;;;5034556;28;20021;-48
2023/11/04 04:22:10;;;;;;;6.15;1.92;;;23.60;99.90;;;;;;5034571;28;20090;-47
2023/11/04 04:24:39;;;;;;;6.13;1.75;;;23.60;99.90;;;;;;5034488;28;20504;-48
2023/11/04 04:27:05;;;;;;;6.00;1.90;;;23.60;99.90;;;;;;5034748;28;20093;-47
2023/11/04 04:29:31;;;;;;;4.60;2.17;;;23.70;99.90;;;;;;5034657;28;20021;-47
2023/11/04 04:31:58;;;;;;;5.85;1.98;;;23.60;99.90;;;;;;5034407;28;20032;-47
2023/11/04 04:34:23;;;;;;;4.93;1.70;;;23.60;99.90;;;;;;5034246;28;20123;-48
2023/11/04 04:36:49;;;;;;;3.22;1.58;;;23.60;99.90;;;;;;5034182;28;20049;-48
2023/11/04 04:39:16;;;;;;;6.68;2.20;;;23.60;99.90;;;;;;5034172;28;20022;-47
2023/11/04 04:41:42;;;;;;;5.53;1.70;;;23.60;99.90;;;;;;5034194;28;20453;-47
2023/11/04 04:44:08;;;;;;;3.92;1.77;;;23.60;99.90;;;;;;5034216;28;20275;-47
2023/11/04 04:46:38;;;;;;;5.80;1.98;;;23.60;99.90;;;;;;5034447;28;20477;-48
2023/11/04 04:49:04;;;;;;;6.60;2.20;;;23.60;99.90;;;;;;5034181;28;20022;-48
2023/11/04 04:51:30;;;;;;;3.92;1.50;;;23.60;99.90;;;;;;5033817;28;20095;-47
2023/11/04 04:53:55;;;;;;;5.20;1.88;;;23.60;99.90;;;;;;5033748;28;20029;-48
2023/11/04 04:56:22;;;;;;;5.68;1.65;;;23.50;99.90;;;;;;5034012;28;20068;-47
2023/11/04 04:58:49;;;;;;;6.78;2.17;;;23.50;99.90;;;;;;5033804;28;20032;-47
2023/11/04 05:01:22;;;;;;;5.13;1.85;;;23.50;99.90;;;;;;5034116;28;20443;-47
2023/11/04 05:03:48;;;;;;;4.25;2.05;;;23.50;99.90;;;;;;5033620;28;20040;-47
2023/11/04 05:06:15;;;;;;;6.63;1.90;;;23.50;99.90;;;;;;5033613;28;20354;-47
2023/11/04 05:08:41;;;;;;;5.15;1.77;;;23.50;99.90;;;;;;5033476;28;20026;-47
2023/11/04 05:11:09;;;;;;;4.15;1.58;;;23.50;99.90;;;;;;5033755;28;20109;-48
2023/11/04 05:13:38;;;;;;;7.10;1.70;;;23.50;99.90;;;;;;5033622;28;20127;-47
2023/11/04 05:16:04;;;;;;;5.40;1.45;;;23.50;99.90;;;;;;5033641;28;20018;-47
2023/11/04 05:18:30;;;;;;;3.63;1.50;;;23.50;99.90;;;;;;5033422;28;20025;-47
2023/11/04 05:20:59;;;;;;;3.25;1.45;;;23.50;99.90;;;;;;5033304;28;20033;-48
2023/11/04 05:23:25;;;;;;;2.88;1.50;;;23.50;99.90;;;;;;5033244;28;20033;-47
2023/11/04 05:25:51;;;;;;;9.63;1.90;;;23.40;99.90;;;;;;5033308;28;20385;-48
2023/11/04 05:28:17;;;;;;;7.23;1.90;;;23.40;99.90;;;;;;5033323;28;20033;-48
2023/11/04 05:30:43;;;;;;;4.32;1.83;;;23.40;99.90;;;;;;5033160;28;20028;-48
2023/11/04 05:33:09;;;;;;;3.40;1.50;;;23.40;99.90;;;;;;5033289;28;20069;-48
2023/11/04 05:35:35;;;;;;;4.22;1.70;;;23.40;99.90;;;;;;5033191;28;20020;-48
2023/11/04 05:38:01;;;;;;;4.80;1.48;;;23.40;99.90;;;;;;5033024;28;20087;-48
2023/11/04 05:40:28;;;;;;;4.93;1.65;;;23.40;99.90;;;;;;5033033;28;20013;-48
2023/11/04 05:42:55;;;;;;;4.57;1.38;;;23.30;99.90;;;;;;5032934;28;20021;-48
2023/11/04 05:45:21;;;;;;;4.90;1.60;;;23.40;99.90;;;;;;5033087;28;20030;-48
2023/11/04 05:47:47;;;;;;;4.13;1.33;;;23.30;99.90;;;;;;5032958;28;20082;-48
2023/11/04 05:50:13;;;;;;;5.78;1.92;;;23.30;99.90;;;;;;5032746;28;20025;-48
2023/11/04 05:52:41;;;;;;;3.38;1.92;;;23.30;99.90;;;;;;5033065;28;20144;-48
2023/11/04 05:55:07;;;;;;;3.35;2.15;;;23.30;99.90;;;;;;5048212;28;20041;-48
2023/11/04 05:57:34;;;;;;;4.03;1.75;;;23.30;99.90;;;;;;5032713;28;20026;-48
2023/11/04 06:00:05;;;;;;;2.63;1.25;;;23.30;99.90;;;;;;5031815;28;20378;-48
2023/11/04 06:02:31;;;;;;;3.83;1.52;;;23.30;99.90;;;;;;5031122;28;20045;-48
2023/11/04 06:04:58;;;;;;;4.55;1.77;;;23.30;99.90;;;;;;5031334;28;20477;-49
2023/11/04 06:07:23;;;;;;;6.43;2.20;;;23.30;99.90;;;;;;5032634;28;20025;-48
2023/11/04 06:09:49;;;;;;;3.17;1.70;;;23.30;99.90;;;;;;5032611;28;20525;-48
2023/11/04 06:12:16;;;;;;;5.63;1.45;;;23.30;99.90;;;;;;5031841;28;20033;-48
2023/11/04 06:14:44;;;;;;;4.15;2.08;;;23.30;99.90;;;;;;5032264;28;20025;-48
2023/11/04 06:17:12;;;;;;;4.97;1.70;;;23.20;99.90;;;;;;5032697;28;20377;-48
2023/11/04 06:19:38;;;;;;;4.53;2.05;;;23.20;99.90;;;;;;5032622;28;20025;-48
2023/11/04 06:22:05;;;;;;;5.43;2.95;;;23.20;99.90;;;;;;5032397;28;20056;-48
2023/11/04 06:24:30;;;;;;;6.50;2.10;;;23.20;99.90;;;;;;5032398;28;20029;-48
2023/11/04 06:26:56;;;;;;;4.15;1.55;;;23.20;99.90;;;;;;5032194;28;20029;-48
2023/11/04 06:29:22;;;;;;;4.15;1.40;;;23.20;99.90;;;;;;5032205;28;20037;-48
2023/11/04 06:31:48;;;;;;;3.10;1.45;;;23.20;99.90;;;;;;5032024;28;20026;-48
2023/11/04 06:34:15;;;;;;;4.18;1.40;;;23.20;99.90;;;;;;5032202;28;20025;-48
2023/11/04 06:36:41;;;;;;;3.65;1.42;;;23.20;99.90;;;;;;5032130;28;20109;-48
2023/11/04 06:39:07;;;;;;;5.40;1.60;;;23.20;99.90;;;;;;5031016;28;20108;-48
2023/11/04 06:41:33;;;;;;;3.80;1.60;;;23.20;99.90;;;;;;5032056;28;20033;-47
2023/11/04 06:43:59;;;;;;;2.67;1.50;;;23.20;99.90;;;;;;5032192;28;20437;-48
2023/11/04 06:46:25;;;;;;;6.00;1.73;;;23.10;99.90;;;;;;5032071;28;20060;-49
2023/11/04 06:48:51;;;;;;;6.25;1.67;;;23.10;99.90;;;;;;5032220;28;20018;-48
2023/11/04 06:51:21;;;;;;;5.53;1.47;;;23.10;99.90;;;;;;5032098;28;20018;-48
2023/11/04 06:53:49;;;;;;;4.82;1.30;;;23.10;99.90;;;;;;5032174;28;20769;-48
2023/11/04 06:56:14;;;;;;;6.60;2.10;;;23.10;99.90;;;;;;5031968;28;20053;-48
2023/11/04 06:58:40;;;;;;;3.13;1.77;;;23.10;99.90;;;;;;5032175;28;20058;-47
2023/11/04 07:01:11;;;;;;;4.20;1.45;;;23.10;99.90;;;;;;5031764;28;20048;-47
2023/11/04 07:03:37;;;;;;;6.45;1.48;;;23.10;99.90;;;;;;5031943;28;20048;-48
2023/11/04 07:06:03;;;;;;;4.18;1.70;;;23.10;99.90;;;;;;5031940;28;20419;-47
2023/11/04 07:08:29;;;;;;;4.78;1.65;;;23.10;99.90;;;;;;5031894;28;20017;-48
2023/11/04 07:10:55;;;;;;;4.85;2.30;;;23.10;99.90;;;;;;5031848;28;20071;-48
2023/11/04 07:13:20;;;;;;;4.70;1.60;;;23.10;99.90;;;;;;5031741;28;20081;-47
2023/11/04 07:15:46;;;;;;;3.95;1.42;;;23.10;99.90;;;;;;5031980;28;20025;-47
2023/11/04 07:18:14;;;;;;;4.40;1.60;;;23.10;99.90;;;;;;5032105;28;20021;-49
2023/11/04 07:20:40;;;;;;;;;;;23.20;99.90;;;;;;5032445;28;20097;-48
2023/11/04 07:23:13;;;;;;;5.90;1.60;;;23.20;99.90;;;;;;5031774;28;19905;-48
2023/11/04 07:25:39;;;;;;;5.75;1.75;;;23.20;99.90;;;;;;5031774;28;20465;-47
2023/11/04 07:28:06;;;;;;;4.03;1.50;;;23.20;99.90;;;;;;5031590;28;20040;-47
2023/11/04 07:30:33;;;;;;;4.53;1.85;;;23.20;99.90;;;;;;5031608;28;20034;-48
2023/11/04 07:32:59;;;;;;;3.40;1.20;;;23.30;99.90;;;;;;5031670;28;20036;-48
2023/11/04 07:35:25;;;;;;;3.92;1.75;;;23.30;99.90;;;;;;5031660;28;20030;-48
2023/11/04 07:37:51;;;;;;;3.15;1.60;;;23.30;99.90;;;;;;5031631;28;20030;-48
2023/11/04 07:40:17;;;;;;;3.20;1.30;;;23.30;99.90;;;;;;5031524;28;20021;-47
2023/11/04 07:42:45;;;;;;;5.43;2.08;;;23.30;99.90;;;;;;5031859;28;20040;-47
2023/11/04 07:45:12;;;;;;;3.40;1.55;;;23.40;99.90;;;;;;5031850;28;20037;-48
2023/11/04 07:47:41;;;;;;;3.72;1.75;;;23.40;99.90;;;;;;5033024;28;20032;-47
2023/11/04 07:50:09;;;;;;;3.80;1.80;;;23.40;99.90;;;;;;5033870;28;20146;-48
2023/11/04 07:52:36;;;;;;;5.78;1.50;;;23.40;99.90;;;;;;5035013;28;20038;-47
2023/11/04 07:55:05;;;;;;;3.95;1.65;;;23.50;99.90;;;;;;5034942;28;20025;-48
2023/11/04 07:57:32;;;;;;;5.93;1.42;;;23.50;99.90;;;;;;5035020;28;20385;-48
2023/11/04 07:59:58;;;;;;;3.55;1.30;;;23.50;99.90;;;;;;5034942;28;20044;-47
2023/11/04 08:02:23;;;;;;;3.65;1.17;;;23.50;99.90;;;;;;5034782;28;20049;-48
2023/11/04 08:04:49;;;;;;;4.18;1.73;;;23.60;99.90;;;;;;5034788;28;20025;-48
2023/11/04 08:07:15;;;;;;;3.03;1.30;;;23.60;99.90;;;;;;5035040;28;20132;-47
2023/11/04 08:09:41;;;;;;;5.15;1.98;;;23.60;99.90;;;;;;5034770;28;20083;-47
2023/11/04 08:12:07;;;;;;;2.67;1.35;;;23.70;99.90;;;;;;5034606;28;20262;-47
2023/11/04 08:14:33;;;;;;;4.20;1.23;;;23.70;99.90;;;;;;5034575;28;20022;-48
2023/11/04 08:16:58;;;;;;;1.90;1.30;;;23.70;99.90;;;;;;5034706;28;20445;-48
2023/11/04 08:19:24;;;;;;;4.63;1.27;;;23.70;99.90;;;;;;5034488;28;20144;-48
2023/11/04 08:21:51;;;;;;;2.70;1.55;;;23.80;99.90;;;;;;5034564;28;20022;-48
2023/11/04 08:24:17;;;;;;;5.00;1.83;;;23.80;99.90;;;;;;5034498;28;20025;-48
2023/11/04 08:26:43;;;;;;;3.00;1.60;;;23.80;99.90;;;;;;5034599;28;20458;-48
2023/11/04 08:29:09;;;;;;;3.30;1.63;;;23.90;99.90;;;;;;5034276;28;20026;-48
2023/11/04 08:31:35;;;;;;;3.95;1.70;;;23.90;99.90;;;;;;5034145;28;20025;-48
2023/11/04 08:34:01;;;;;;;3.97;1.75;;;23.90;99.90;;;;;;5034426;28;20117;-48
2023/11/04 08:36:27;;;;;;;2.08;1.38;;;23.90;99.90;;;;;;5034277;28;20100;-48
2023/11/04 08:38:53;;;;;;;6.07;1.77;;;23.90;99.90;;;;;;5034162;28;20124;-48
2023/11/04 08:41:19;;;;;;;4.35;1.65;;;23.90;99.90;;;;;;5033057;28;20057;-48
2023/11/04 08:43:45;;;;;;;4.18;1.48;;;24.00;99.90;;;;;;5034457;28;20033;-48
2023/11/04 08:46:12;;;;;;;4.32;2.00;;;24.00;99.90;;;;;;5034103;28;20037;-48
2023/11/04 08:48:38;;;;;;;4.13;1.25;;;24.00;99.90;;;;;;5034406;28;20362;-48
2023/11/04 08:51:04;;;;;;;5.30;2.17;;;24.00;99.90;;;;;;5032731;28;20029;-47
2023/11/04 08:53:30;;;;;;;7.88;1.55;;;24.10;99.90;;;;;;5033752;28;20092;-48
2023/11/04 08:55:55;;;;;;;3.45;1.77;;;24.10;99.90;;;;;;5032649;28;20083;-48
2023/11/04 08:58:21;;;;;;;5.10;1.60;;;24.10;99.90;;;;;;5033319;28;20500;-48
2023/11/04 09:00:48;;;;;;;5.93;1.92;;;24.20;99.90;;;;;;5033954;28;20029;-48
2023/11/04 09:03:13;;;;;;;2.92;1.60;;;24.20;99.90;;;;;;5033791;28;20022;-47
2023/11/04 09:05:39;;;;;;;4.53;1.60;;;24.20;99.90;;;;;;5033632;28;20669;-48
2023/11/04 09:08:05;;;;;;;4.40;1.98;;;24.20;99.90;;;;;;5033624;28;20079;-48
2023/11/04 09:10:31;;;;;;;2.60;1.20;;;24.30;99.90;;;;;;5033763;28;20031;-48
2023/11/04 09:12:57;;;;;;;3.97;1.35;;;24.30;99.90;;;;;;5033594;28;20117;-48
2023/11/04 09:15:23;;;;;;;5.35;1.70;;;24.30;99.90;;;;;;5033596;28;20083;-47
2023/11/04 09:17:49;;;;;;;7.45;1.70;;;24.40;99.90;;;;;;5033709;28;20436;-48
2023/11/04 09:20:14;;;;;;;3.83;1.63;;;24.40;99.90;;;;;;5032015;28;20474;-48
2023/11/04 09:22:40;;;;;;;4.45;1.80;;;24.50;99.90;;;;;;5033116;28;20040;-48
2023/11/04 09:25:07;;;;;;;4.80;1.92;;;24.50;99.90;;;;;;5033207;28;20056;-48
2023/11/04 09:27:33;;;;;;;3.00;1.55;;;24.50;99.90;;;;;;5033277;28;20059;-48
2023/11/04 09:29:59;;;;;;;4.57;1.50;;;24.60;99.90;;;;;;5033260;28;20450;-47
2023/11/04 09:32:25;;;;;;;5.40;2.00;;;24.60;99.90;;;;;;5033303;28;20049;-48
2023/11/04 09:34:51;;;;;;;10.60;1.70;;;24.60;99.90;;;;;;5033808;28;20025;-48
2023/11/04 09:37:17;;;;;;;4.15;1.77;;;24.60;99.90;;;;;;5033161;28;20431;-47
2023/11/04 09:39:43;;;;;;;5.43;1.50;;;24.70;99.90;;;;;;5033020;28;20026;-48
2023/11/04 09:42:13;;;;;;;3.25;1.33;;;24.70;99.90;;;;;;5032912;28;20363;-48
2023/11/04 09:44:39;;;;;;;5.10;1.90;;;24.70;99.90;;;;;;5032822;28;20026;-48
2023/11/04 09:47:05;;;;;;;5.03;1.58;;;24.80;99.90;;;;;;5032856;28;20444;-48
2023/11/04 09:49:31;;;;;;;6.97;1.90;;;24.80;99.90;;;;;;5032815;28;20064;-48
2023/11/04 09:52:00;;;;;;;9.55;2.45;;;24.90;99.90;;;;;;5032642;28;20033;-49
2023/11/04 09:54:28;;;;;;;6.43;1.83;;;24.90;99.90;;;;;;5032781;28;20020;-48
2023/11/04 09:56:55;;;;;;;9.38;2.33;;;24.90;99.90;;;;;;5032776;28;20100;-48
2023/11/04 09:59:21;;;;;;;5.70;1.88;;;25.00;99.90;;;;;;5033112;28;20021;-49
2023/11/04 10:01:46;;;;;;;7.80;2.03;;;25.00;99.90;;;;;;5032525;28;20099;-48
2023/11/04 10:04:12;;;;;;;7.28;1.90;;;25.00;99.90;;;;;;5032532;28;20026;-48
2023/11/04 10:06:38;;;;;;;5.80;1.88;;;25.10;99.90;;;;;;5032588;28;20465;-48
2023/11/04 10:09:04;;;;;;;6.57;2.65;;;25.10;99.90;;;;;;5032290;28;20064;-48
2023/11/04 10:11:31;;;;;;;7.97;2.60;;;25.10;99.90;;;;;;5031964;28;20531;-49
2023/11/04 10:13:57;;;;;;;6.75;3.15;;;25.20;99.90;;;;;;5031217;28;20025;-49
2023/11/04 10:16:22;;;;;;;5.38;1.63;;;25.20;99.90;;;;;;5032709;28;20370;-48
2023/11/04 10:18:51;;;;;;;4.65;2.03;;;25.30;99.90;;;;;;5032392;28;20036;-48
2023/11/04 10:21:21;;;;;;;5.05;2.00;;;25.30;99.90;;;;;;5032375;28;20021;-48
2023/11/04 10:23:47;;;;;;;4.22;1.60;;;25.40;99.90;;;;;;5032396;28;20021;-48
2023/11/04 10:26:17;;;;;;;4.72;1.60;;;25.40;99.90;;;;;;5032316;28;20079;-48
2023/11/04 10:28:43;;;;;;;7.22;2.15;;;25.40;99.90;;;;;;5032312;28;20025;-48
2023/11/04 10:31:14;;;;;;;8.00;2.10;;;25.40;99.90;;;;;;5032298;28;20037;-48
2023/11/04 10:33:42;;;;;;;6.00;1.95;;;25.50;99.90;;;;;;5032205;28;20033;-48
2023/11/04 10:36:09;;;;;;;10.27;2.20;;;25.60;99.90;;;;;;5032234;28;20105;-49
2023/11/04 10:38:36;;;;;;;7.25;1.80;;;25.60;99.90;;;;;;5032251;28;20419;-49
2023/11/04 10:41:06;;;;;;;9.20;2.60;;;25.60;99.90;;;;;;5032289;28;20040;-48
2023/11/04 10:43:58;;;;;;;4.10;1.50;;;25.60;99.90;;;;;;5032139;28;20505;-49
2023/11/04 10:46:49;;;;;;;9.85;2.38;;;25.70;99.90;;;;;;5032428;28;20021;-49
2023/11/04 10:50:05;;;;;;;3.70;2.35;;;25.70;99.90;;;;;;5032208;28;20075;-49
2023/11/04 10:52:36;;;;;;;6.32;1.80;;;25.80;99.90;;;;;;5019097;28;20103;-48
2023/11/04 10:55:09;;;;;;;4.13;2.40;;;25.80;99.90;;;;;;5031912;28;20026;-48
2023/11/04 10:57:47;;;;;;;6.65;2.42;;;25.80;99.90;;;;;;5032088;28;20440;-48
2023/11/04 11:00:19;;;;;;;7.15;2.42;;;25.90;99.90;;;;;;5031987;28;20029;-48
2023/11/04 11:02:46;;;;;;;5.63;2.60;;;25.90;99.90;;;;;;5031811;28;20400;-48
2023/11/04 11:05:14;;;;;;;7.30;2.37;;;25.90;99.90;;;;;;5032081;28;20026;-48
2023/11/04 11:07:44;;;;;;;7.03;2.25;;;25.90;99.90;;;;;;5031839;28;20381;-48
2023/11/04 11:10:14;;;;;;;8.32;3.58;;;25.90;99.90;;;;;;5031839;28;20028;-48
2023/11/04 11:13:04;;;;;;;5.50;1.75;;;25.90;99.90;;;;;;5031825;28;20535;-48
2023/11/04 11:15:31;;;;;;;6.35;2.42;;;25.90;99.90;;;;;;5031796;28;20429;-49
2023/11/04 11:18:00;;;;;;;6.45;2.40;;;26.00;99.90;;;;;;5031972;28;20060;-49
2023/11/04 11:20:35;;;;;;;5.88;2.25;;;26.00;99.90;;;;;;5031886;28;20027;-49
2023/11/04 11:23:08;;;;;;;6.32;2.33;;;26.00;99.90;;;;;;5035555;28;20033;-49
2023/11/04 11:25:39;;;;;;;7.22;2.22;;;26.00;99.90;;;;;;5035357;28;20028;-49
2023/11/04 11:28:26;;;;;;;7.97;2.17;;;26.10;99.90;;;;;;5035410;28;20031;-49
2023/11/04 11:30:57;;;;;;;6.82;2.50;;;26.10;99.90;;;;;;5035477;28;20061;-49
2023/11/04 11:33:27;;;;;;;7.05;2.20;;;26.10;99.90;;;;;;5035535;28;20405;-49
2023/11/04 11:36:06;;;;;;;5.57;2.17;;;26.10;99.90;;;;;;5035577;28;20048;-49
2023/11/04 11:38:33;;;;;;;5.10;2.15;;;26.20;99.90;;;;;;5035337;28;20493;-49
2023/11/04 11:41:16;;;;;;;6.90;2.65;;;26.20;99.90;;;;;;5035359;28;20026;-49
2023/11/04 11:43:43;;;;;;;4.43;2.10;;;26.20;99.90;;;;;;5035179;28;20549;-49
2023/11/04 11:46:09;;;;;;;5.75;2.58;;;26.30;99.90;;;;;;5035182;28;20029;-49
2023/11/04 11:48:39;;;;;;;10.35;2.75;;;26.30;99.90;;;;;;5035133;28;20034;-49
2023/11/04 11:51:13;;;;;;;7.50;2.15;;;26.30;99.90;;;;;;5034973;28;20482;-48
2023/11/04 11:53:45;;;;;;;4.35;1.73;;;26.30;99.90;;;;;;5035050;28;20494;-49
2023/11/04 11:56:11;;;;;;;7.15;2.28;;;26.40;99.90;;;;;;5035321;28;20026;-48
2023/11/04 11:58:38;;;;;;;5.15;2.58;;;26.40;99.90;;;;;;5034877;28;20072;-48
2023/11/04 12:01:05;;;;;;;5.57;2.50;;;26.40;99.90;;;;;;5034599;28;20117;-49
2023/11/04 12:03:33;;;;;;;11.18;3.03;;;26.50;99.90;;;;;;5034758;28;20133;-49
2023/11/04 12:05:59;;;;;;;12.32;3.60;;;26.50;99.90;;;;;;5034925;28;20052;-48
2023/11/04 12:08:25;;;;;;;15.55;3.45;;;26.40;99.90;;;;;;5035018;28;20520;-48
2023/11/04 12:10:51;;;;;;;13.05;3.58;;;26.40;99.90;;;;;;5034720;28;20045;-49
2023/11/04 12:13:17;;;;;;;18.05;4.28;;;26.40;99.90;;;;;;5033285;28;20071;-48
2023/11/04 12:15:44;;;;;;;16.55;3.53;;;26.40;99.90;;;;;;5033258;28;20030;-50
2023/11/04 12:18:12;;;;;;;12.13;3.72;;;26.30;99.90;;;;;;5039599;28;20029;-48
2023/11/04 12:20:40;;;;;;;;;;;26.30;99.90;;;;;;5045233;28;20026;-48
2023/11/04 12:23:07;;;;;;;15.82;4.00;;;26.20;99.90;;;;;;5040289;28;19905;-48
2023/11/04 12:25:35;;;;;;;23.55;5.10;;;26.20;99.90;;;;;;5054353;28;20033;-49
2023/11/04 12:28:06;;;;;;;;;;;26.10;99.90;;;;;;5048842;28;20396;-48
2023/11/04 12:30:33;;;;;;;14.63;5.43;;;26.00;99.90;;;;;;5031728;28;19913;-48
2023/11/04 12:33:00;;;;;;;19.60;5.00;;;25.90;99.90;;;;;;5032648;28;20030;-48
2023/11/04 12:35:26;;;;;;;17.30;5.43;;;25.80;99.90;;;;;;5032768;28;20077;-48
2023/11/04 12:37:52;;;;;;;18.00;5.45;;;25.80;99.90;;;;;;5033845;28;20397;-49
2023/11/04 12:40:20;;;;;;;19.20;5.10;;;25.80;99.90;;;;;;5034246;28;20462;-49
2023/11/04 12:42:46;;;;;;;17.30;4.60;;;25.70;99.90;;;;;;5034323;28;20399;-49
2023/11/04 12:45:13;;;;;;;19.63;4.65;;;25.80;99.90;;;;;;5033535;28;20032;-49
2023/11/04 12:47:40;;;;;;;16.52;4.72;;;25.80;99.90;;;;;;5030989;28;20017;-47